Aviation Digital Data Service (ADDS)

Output produced by METARs form (1700 UTC 20 January 2019)
found at http://www.aviationweather.gov/metar/data/
 
OBBI 201700Z 31017KT 9999 FEW025 15/07 Q1023 NOSIG
TAF OBBI 201700Z 2018/2200 32016KT 9999 SCT025